Главная страница
METAR-TAF:

METAR-TAF

Аэропорты :

Оттава, Онтарио, Канада

Международный аэропорт имени Макдональда — Картье

широта: 45-19N, долгота: 075-40W, высота над уровнем моря: 116 м

Текущие метеонаблюдения

Эта сводка был подготовлена 16 минут назад, в 16:00 UTC
Ветер 6 Узел от северо-западный, изменяющийся между западный и северный
Температура 12°C
Влажность 20%
Давление 1030 hPa
Видимость: 24.1 км
ясное небо

METAR: CYOW 221600Z 31006KT 270V360 15SM SKC 12/M10 A3043 RMK SLP312

Время: 12:16 (16:16 UTC)

Прогноз

Эта сводка был подготовлена 1 час и 37 минут назад, в 14:39 UTC
Прогноз действительный с 22-го 15 UTC до 23-го 12 UTC
Ветер 3 Узел переменных направлений
Видимость: 10 км
ясное небо
изменения
С 22-го 17 UTC до 22-го 19 UTC
Ветер 8 Узел от западно-северо-западный
изменения
С 22-го 23 UTC до 23-го 01 UTC
Ветер 3 Узел переменных направлений

TAF: CYOW 221439Z 2215/2312 VRB03KT P6SM SKC BECMG 2217/2219 30008KT BECMG 2223/2301 VRB03KT RMK NXT FCST BY 221800Z

Метеонаблюдения и прогнозы для более 4000 аэропортов (сводки METAR и TAF).

Имеющиеся станции представлены на карте желтыми и красными точками.

Чтобы увидеть название станции, наведите на нее мышь.

Затем щелкните, чтобы увидеть метеонаблюдения и метеопрогнозы.

Управление картой: чтобы увеличить масштаб, щелкните зеленые кнопки с черным крестиком; чтобы уменьшить масштаб, щелкните зеленую кнопку с тире; для просмотра соседних карт щелкайте зеленые стрелки.


METAR-TAF: